createdAt,value
2023-02-03T00:00:48.526Z,2.00
2023-02-03T00:03:34.809Z,1.90
2023-02-03T00:06:20.701Z,2.25
2023-02-03T00:09:06.662Z,1.92
2023-02-03T00:11:53.324Z,1.67
2023-02-03T00:14:39.470Z,1.80
2023-02-03T00:17:25.265Z,2.03
2023-02-03T00:20:11.879Z,1.45
2023-02-03T00:23:09.097Z,1.23
2023-02-03T00:25:54.767Z,0.80
2023-02-03T00:28:41.704Z,1.00
2023-02-03T00:31:27.967Z,1.10
2023-02-03T00:34:13.782Z,1.20
2023-02-03T00:36:59.772Z,0.90
2023-02-03T00:39:45.478Z,1.02
2023-02-03T00:42:35.699Z,1.20
2023-02-03T00:45:21.889Z,1.10
2023-02-03T00:48:17.167Z,1.10
2023-02-03T00:51:03.304Z,1.20
2023-02-03T00:53:49.498Z,0.65
2023-02-03T00:56:35.225Z,0.70
2023-02-03T00:59:22.005Z,0.60
2023-02-03T01:02:07.645Z,0.50
2023-02-03T01:04:53.428Z,0.57
2023-02-03T01:07:39.161Z,0.63
2023-02-03T01:10:25.240Z,0.40
2023-02-03T01:13:11.607Z,0.60
2023-02-03T01:15:57.921Z,0.70
2023-02-03T01:18:46.458Z,0.68
2023-02-03T01:21:32.923Z,0.60
2023-02-03T01:24:18.735Z,0.75
2023-02-03T01:27:06.287Z,0.85
2023-02-03T01:29:52.217Z,1.00
2023-02-03T01:32:40.683Z,0.80
2023-02-03T01:35:26.693Z,0.70
2023-02-03T01:38:13.907Z,0.82
2023-02-03T01:40:59.766Z,0.93
2023-02-03T01:43:49.574Z,0.50
2023-02-03T01:46:44.819Z,1.08
2023-02-03T01:49:35.720Z,0.88
2023-02-03T01:52:21.906Z,0.70
2023-02-03T01:55:13.423Z,0.70
2023-02-03T01:58:32.371Z,0.60
2023-02-03T02:01:19.717Z,0.60
2023-02-03T02:04:08.841Z,0.60
2023-02-03T02:06:56.587Z,0.90
2023-02-03T02:09:43.967Z,0.80
2023-02-03T02:12:29.632Z,0.95
2023-02-03T02:15:16.740Z,0.90
2023-02-03T02:18:02.558Z,1.05
2023-02-03T02:21:08.654Z,1.10
2023-02-03T02:24:15.667Z,0.93
2023-02-03T02:27:04.488Z,0.80
2023-02-03T02:30:12.111Z,0.93
2023-02-03T02:33:21.108Z,0.57
2023-02-03T02:36:07.653Z,0.77
2023-02-03T02:39:12.464Z,1.05
2023-02-03T02:42:04.834Z,1.60
2023-02-03T02:44:56.113Z,0.88
2023-02-03T02:47:42.306Z,0.60
2023-02-03T02:50:32.119Z,0.80
2023-02-03T02:53:21.693Z,0.90
2023-02-03T02:56:11.687Z,0.82
2023-02-03T02:58:58.463Z,0.82
2023-02-03T03:01:44.977Z,0.70
2023-02-03T03:04:32.751Z,0.70
2023-02-03T03:07:24.734Z,0.80
2023-02-03T03:10:14.020Z,0.82
2023-02-03T03:13:04.090Z,0.90
2023-02-03T03:15:51.632Z,1.00
2023-02-03T03:18:58.406Z,0.80
2023-02-03T03:21:49.476Z,1.00
2023-02-03T03:24:41.466Z,0.90
2023-02-03T03:27:32.504Z,1.10
2023-02-03T03:30:24.740Z,0.75
2023-02-03T03:33:10.888Z,1.00
2023-02-03T03:36:23.431Z,0.90
2023-02-03T03:39:22.531Z,0.90
2023-02-03T03:42:32.134Z,0.90
2023-02-03T03:45:17.817Z,0.80
2023-02-03T03:48:07.766Z,0.77
2023-02-03T03:50:58.828Z,0.80
2023-02-03T03:53:46.011Z,1.33
2023-02-03T03:56:40.523Z,1.00
2023-02-03T03:59:30.536Z,1.20
2023-02-03T04:02:17.502Z,1.05
2023-02-03T04:05:03.790Z,1.00
2023-02-03T04:07:49.755Z,0.93
2023-02-03T04:10:39.756Z,1.02
2023-02-03T04:13:26.709Z,1.10
2023-02-03T04:16:12.424Z,1.23
2023-02-03T04:18:58.422Z,1.00
2023-02-03T04:21:44.257Z,0.88
2023-02-03T04:24:30.292Z,1.20
2023-02-03T04:27:15.841Z,1.38
2023-02-03T04:30:01.864Z,1.13
2023-02-03T04:32:48.014Z,1.17
2023-02-03T04:35:35.146Z,1.08
2023-02-03T04:38:20.734Z,1.10
2023-02-03T04:41:06.499Z,1.05
2023-02-03T04:43:52.150Z,1.30
2023-02-03T04:46:38.099Z,1.30
2023-02-03T04:49:23.830Z,1.30
2023-02-03T04:52:10.265Z,1.17
2023-02-03T04:54:56.210Z,1.40
2023-02-03T04:57:41.947Z,1.48
2023-02-03T05:00:29.063Z,1.48
2023-02-03T05:03:14.932Z,1.10
2023-02-03T05:06:00.711Z,1.17
2023-02-03T05:08:46.482Z,1.40
2023-02-03T05:11:32.148Z,1.67
2023-02-03T05:14:17.907Z,1.45
2023-02-03T05:17:03.659Z,1.50
2023-02-03T05:19:49.461Z,1.67
2023-02-03T05:22:35.735Z,1.48
2023-02-03T05:25:21.570Z,1.50
2023-02-03T05:28:07.437Z,1.80
2023-02-03T05:30:53.482Z,1.77
2023-02-03T05:33:39.183Z,1.67
2023-02-03T05:36:25.631Z,1.73
2023-02-03T05:39:11.720Z,2.05
2023-02-03T05:41:58.605Z,2.03
2023-02-03T05:44:44.744Z,2.78
2023-02-03T05:47:30.392Z,1.80
2023-02-03T05:50:16.258Z,2.25
2023-02-03T05:53:04.307Z,2.88
2023-02-03T05:55:50.199Z,2.53
2023-02-03T05:58:36.137Z,2.85
2023-02-03T06:01:21.942Z,3.95
2023-02-03T06:04:07.689Z,3.70
2023-02-03T06:06:53.589Z,3.58
2023-02-03T06:09:39.340Z,4.80
2023-02-03T06:12:28.224Z,4.50
2023-02-03T06:15:15.426Z,3.95
2023-02-03T06:18:01.528Z,4.50
2023-02-03T06:20:47.081Z,3.42
2023-02-03T06:23:33.093Z,4.05
2023-02-03T06:26:18.730Z,4.88
2023-02-03T06:29:04.556Z,5.00
2023-02-03T06:31:50.504Z,3.75
2023-02-03T06:34:36.625Z,3.78
2023-02-03T06:37:23.907Z,5.10
2023-02-03T06:40:12.126Z,4.80
2023-02-03T06:42:58.000Z,3.70
2023-02-03T06:45:49.665Z,3.15
2023-02-03T06:48:35.502Z,3.83
2023-02-03T06:51:21.365Z,3.97
2023-02-03T06:54:07.796Z,3.67
2023-02-03T06:56:53.803Z,3.00
2023-02-03T06:59:39.324Z,3.38
2023-02-03T07:02:25.252Z,4.82
2023-02-03T07:05:11.289Z,6.35
2023-02-03T07:07:57.512Z,10.20
2023-02-03T07:10:43.459Z,12.60
2023-02-03T07:13:29.101Z,9.00
2023-02-03T07:16:14.945Z,4.07
2023-02-03T07:19:00.884Z,4.55
2023-02-03T07:21:47.166Z,4.63
2023-02-03T07:24:33.023Z,4.25
2023-02-03T07:27:19.990Z,3.70
2023-02-03T07:30:06.483Z,3.85
2023-02-03T07:32:53.615Z,4.22
2023-02-03T07:35:39.551Z,5.22
2023-02-03T07:38:26.935Z,5.82
2023-02-03T07:41:12.778Z,5.40
2023-02-03T07:43:58.443Z,5.28
2023-02-03T07:46:45.603Z,7.03
2023-02-03T07:49:31.525Z,7.32
2023-02-03T07:52:17.442Z,6.53
2023-02-03T07:55:03.970Z,7.47
2023-02-03T07:57:49.620Z,7.45
2023-02-03T08:00:35.522Z,6.72
2023-02-03T08:03:21.454Z,5.90
2023-02-03T08:06:08.064Z,6.00
2023-02-03T08:08:54.190Z,8.25
2023-02-03T08:11:40.931Z,6.47
2023-02-03T08:14:26.583Z,3.45
2023-02-03T08:17:12.443Z,4.75
2023-02-03T08:19:58.116Z,4.60
2023-02-03T08:22:45.382Z,3.63
2023-02-03T08:25:31.096Z,9.75
2023-02-03T08:28:17.165Z,10.57
2023-02-03T08:31:10.116Z,8.93
2023-02-03T08:33:56.395Z,6.95
2023-02-03T08:36:43.948Z,6.75
2023-02-03T08:39:29.643Z,4.10
2023-02-03T08:42:15.665Z,4.75
2023-02-03T08:45:02.837Z,3.72
2023-02-03T08:47:51.691Z,4.10
2023-02-03T08:50:37.519Z,3.42
2023-02-03T08:53:27.440Z,3.30
2023-02-03T08:56:22.363Z,3.25
2023-02-03T08:59:08.120Z,3.45
2023-02-03T09:01:54.054Z,2.47
2023-02-03T09:04:40.108Z,2.28
2023-02-03T09:07:26.222Z,1.90
2023-02-03T09:10:11.996Z,2.00
2023-02-03T09:12:57.631Z,2.20
2023-02-03T09:15:43.306Z,3.00
2023-02-03T09:18:29.057Z,2.58
2023-02-03T09:21:31.616Z,3.10
2023-02-03T09:24:19.006Z,1.70
2023-02-03T09:27:04.932Z,2.10
2023-02-03T09:29:50.664Z,2.00
2023-02-03T09:32:36.528Z,2.00
2023-02-03T09:35:22.811Z,3.10
2023-02-03T09:38:08.745Z,2.35
2023-02-03T09:41:21.824Z,2.22
2023-02-03T09:44:46.607Z,2.20
2023-02-03T09:47:37.875Z,2.17
2023-02-03T09:50:27.302Z,2.03
2023-02-03T09:53:19.318Z,2.53
2023-02-03T09:56:05.100Z,2.38
2023-02-03T09:58:51.216Z,1.52
2023-02-03T10:01:58.712Z,1.63
2023-02-03T10:05:20.987Z,2.60
2023-02-03T10:08:20.765Z,2.30
2023-02-03T10:11:12.556Z,3.30
2023-02-03T10:14:20.057Z,2.75
2023-02-03T10:17:14.721Z,2.00
2023-02-03T10:20:33.540Z,1.52
2023-02-03T10:23:29.089Z,1.25
2023-02-03T10:26:21.839Z,1.63
2023-02-03T10:29:35.316Z,1.40
2023-02-03T10:32:21.185Z,1.70
2023-02-03T10:35:12.787Z,2.15
2023-02-03T10:37:59.543Z,2.60
2023-02-03T10:40:45.612Z,2.60
2023-02-03T10:43:48.767Z,2.15
2023-02-03T10:46:36.685Z,2.17
2023-02-03T10:49:22.769Z,2.33
2023-02-03T10:52:08.371Z,2.25
2023-02-03T10:54:54.306Z,1.92
2023-02-03T10:57:45.079Z,2.92
2023-02-03T11:00:32.451Z,2.58
2023-02-03T11:03:29.619Z,1.58
2023-02-03T11:06:17.402Z,1.77
2023-02-03T11:09:22.616Z,1.80
2023-02-03T11:12:14.215Z,2.08
2023-02-03T11:15:06.585Z,1.48
2023-02-03T11:17:52.225Z,1.73
2023-02-03T11:20:38.244Z,1.27
2023-02-03T11:23:23.970Z,1.70
2023-02-03T11:26:14.400Z,1.67
2023-02-03T11:29:02.538Z,0.90
2023-02-03T11:32:02.032Z,1.80
2023-02-03T11:34:58.038Z,2.00
2023-02-03T11:37:45.988Z,2.33
2023-02-03T11:40:34.308Z,2.35
2023-02-03T11:43:25.162Z,1.95
2023-02-03T11:46:11.192Z,1.23
2023-02-03T11:49:00.835Z,1.77
2023-02-03T11:51:55.990Z,2.25
2023-02-03T11:54:51.527Z,1.13
2023-02-03T11:58:00.194Z,1.10
2023-02-03T12:00:49.006Z,2.15
2023-02-03T12:03:53.157Z,1.35
2023-02-03T12:07:12.252Z,1.63
2023-02-03T12:10:07.374Z,2.22
2023-02-03T12:13:01.816Z,1.40
2023-02-03T12:16:03.916Z,1.58
2023-02-03T12:18:58.408Z,1.90
2023-02-03T12:21:54.099Z,1.20
2023-02-03T12:24:53.295Z,1.70
2023-02-03T12:27:51.130Z,1.85
2023-02-03T12:30:48.875Z,1.50
2023-02-03T12:33:40.569Z,2.70
2023-02-03T12:36:49.675Z,2.50
2023-02-03T12:40:17.431Z,1.77
2023-02-03T12:43:17.855Z,1.45
2023-02-03T12:46:18.408Z,2.72
2023-02-03T12:49:21.466Z,3.25
2023-02-03T12:52:09.832Z,2.60
2023-02-03T12:54:58.691Z,1.50
2023-02-03T12:58:45.337Z,1.73
2023-02-03T13:01:44.214Z,1.10
2023-02-03T13:04:34.215Z,0.80
2023-02-03T13:07:37.456Z,1.23
2023-02-03T13:10:27.634Z,1.10
2023-02-03T13:13:18.044Z,1.02
2023-02-03T13:16:07.344Z,3.75
2023-02-03T13:18:58.722Z,1.40
2023-02-03T13:21:46.680Z,1.10
2023-02-03T13:24:32.549Z,1.27
2023-02-03T13:27:21.452Z,1.10
2023-02-03T13:30:27.273Z,2.78
2023-02-03T13:33:46.914Z,1.38
2023-02-03T13:37:05.553Z,2.72
2023-02-03T13:40:15.077Z,1.90
2023-02-03T13:43:05.787Z,1.25
2023-02-03T13:45:52.673Z,1.10
2023-02-03T13:48:38.666Z,3.03
2023-02-03T13:51:30.038Z,1.65
2023-02-03T13:54:32.490Z,1.60
2023-02-03T13:57:40.680Z,2.78
2023-02-03T14:00:44.782Z,1.42
2023-02-03T14:06:38.506Z,1.55
2023-02-03T14:09:30.365Z,1.92
2023-02-03T14:12:16.141Z,4.68
2023-02-03T14:15:16.983Z,5.43
2023-02-03T14:18:03.859Z,2.97
2023-02-03T14:20:52.304Z,3.90
2023-02-03T14:23:47.738Z,4.82
2023-02-03T14:26:38.755Z,3.90
2023-02-03T14:29:27.755Z,3.15
2023-02-03T14:32:14.004Z,4.88
2023-02-03T14:34:59.901Z,3.67
2023-02-03T14:38:06.961Z,4.20
2023-02-03T14:41:03.234Z,3.42
2023-02-03T14:44:09.433Z,6.45
2023-02-03T14:47:27.665Z,3.35
2023-02-03T14:50:41.002Z,2.35
2023-02-03T14:54:02.070Z,3.00
2023-02-03T14:57:09.106Z,5.43
2023-02-03T15:00:04.462Z,3.65
2023-02-03T15:03:12.049Z,6.40
2023-02-03T15:06:03.462Z,6.85
2023-02-03T15:08:49.629Z,7.40
2023-02-03T15:11:45.908Z,5.45
2023-02-03T15:14:32.672Z,11.98
2023-02-03T15:17:25.822Z,4.82
2023-02-03T15:20:41.543Z,5.53
2023-02-03T15:23:39.205Z,4.43
2023-02-03T15:26:26.344Z,7.93
2023-02-03T15:29:22.087Z,9.20
2023-02-03T15:32:08.187Z,5.45
2023-02-03T15:34:54.503Z,13.13
2023-02-03T15:37:45.688Z,12.00
2023-02-03T15:40:59.113Z,11.10
2023-02-03T15:43:46.932Z,7.68
2023-02-03T15:46:35.239Z,6.93
2023-02-03T15:49:41.834Z,10.02
2023-02-03T15:52:29.276Z,11.30
2023-02-03T15:55:42.163Z,9.13
2023-02-03T15:58:30.296Z,5.78
2023-02-03T16:01:20.250Z,9.93
2023-02-03T16:04:09.788Z,6.93
2023-02-03T16:06:56.165Z,5.60
2023-02-03T16:09:41.947Z,4.10
2023-02-03T16:12:34.585Z,5.97
2023-02-03T16:15:26.076Z,4.10
2023-02-03T16:18:17.855Z,4.60
2023-02-03T16:21:07.133Z,3.33
2023-02-03T16:23:54.578Z,4.95
2023-02-03T16:26:40.601Z,4.55
2023-02-03T16:29:48.735Z,4.55
2023-02-03T16:32:54.775Z,3.78
2023-02-03T16:36:00.422Z,5.20
2023-02-03T16:39:05.941Z,8.43
2023-02-03T16:42:11.401Z,8.82
2023-02-03T16:45:17.535Z,10.30
2023-02-03T16:48:22.965Z,10.10
2023-02-03T16:51:16.824Z,6.53
2023-02-03T16:54:02.843Z,5.53
2023-02-03T16:56:49.498Z,6.53
2023-02-03T16:59:36.142Z,7.07
2023-02-03T17:02:21.893Z,5.70
2023-02-03T17:05:07.891Z,6.28
2023-02-03T17:07:53.415Z,6.15
2023-02-03T17:10:41.216Z,7.03
2023-02-03T17:13:27.011Z,5.20
2023-02-03T17:16:17.140Z,3.88
2023-02-03T17:19:02.877Z,4.03
2023-02-03T17:21:49.700Z,8.63
2023-02-03T17:24:35.786Z,12.68
2023-02-03T17:27:22.087Z,15.30
2023-02-03T17:30:08.505Z,16.65
2023-02-03T17:32:54.247Z,21.55
2023-02-03T17:35:44.351Z,24.77
2023-02-03T17:38:31.580Z,24.02
2023-02-03T17:53:37.149Z,27.43
2023-02-03T17:56:25.310Z,25.40
2023-02-03T17:59:11.559Z,25.50
2023-02-03T18:01:57.564Z,25.92
2023-02-03T18:04:44.553Z,26.08
2023-02-03T18:07:30.489Z,23.65
2023-02-03T18:10:17.541Z,16.00
2023-02-03T18:13:04.822Z,16.88
2023-02-03T18:15:50.888Z,18.55
2023-02-03T18:18:38.871Z,19.20
2023-02-03T18:21:26.658Z,18.60
2023-02-03T18:24:13.789Z,14.77
2023-02-03T18:27:00.799Z,16.15
2023-02-03T18:29:48.258Z,16.60
2023-02-03T18:32:35.057Z,18.05
2023-02-03T18:35:20.985Z,20.50
2023-02-03T18:38:07.793Z,22.02
2023-02-03T18:40:55.090Z,27.35
2023-02-03T18:43:42.404Z,24.30
2023-02-03T18:46:30.559Z,26.25
2023-02-03T18:49:17.514Z,26.10
2023-02-03T18:52:04.377Z,29.77
2023-02-03T18:54:51.780Z,27.17
2023-02-03T18:57:38.003Z,24.00
2023-02-03T19:00:37.152Z,34.00
2023-02-03T19:03:27.067Z,38.33
2023-02-03T19:06:13.367Z,31.65
2023-02-03T19:09:05.488Z,23.60
2023-02-03T19:11:51.533Z,10.38
2023-02-03T19:14:37.887Z,11.32
2023-02-03T19:22:02.142Z,13.02
2023-02-03T19:24:47.920Z,11.45
2023-02-03T19:27:55.701Z,10.35
2023-02-03T19:31:19.486Z,10.18
2023-02-03T19:34:05.907Z,11.32
2023-02-03T19:36:52.695Z,9.00
2023-02-03T19:39:39.433Z,10.48
2023-02-03T19:42:25.393Z,14.43
2023-02-03T19:45:12.088Z,14.38
2023-02-03T19:47:57.764Z,13.70
2023-02-03T19:50:45.984Z,16.23
2023-02-03T19:53:31.895Z,17.75
2023-02-03T19:56:17.749Z,19.05
2023-02-03T19:59:04.496Z,17.65
2023-02-03T20:01:50.804Z,18.33
2023-02-03T20:04:36.745Z,18.08
2023-02-03T20:07:23.322Z,16.15
2023-02-03T20:10:09.472Z,15.43
2023-02-03T20:12:56.387Z,16.42
2023-02-03T20:15:42.568Z,18.60
2023-02-03T20:18:29.531Z,17.98
2023-02-03T20:21:15.319Z,19.27
2023-02-03T20:24:01.143Z,21.77
2023-02-03T20:26:47.269Z,21.98
2023-02-03T20:29:33.123Z,22.75
2023-02-03T20:32:18.876Z,17.02
2023-02-03T20:35:06.860Z,15.85
2023-02-03T20:37:53.318Z,23.50
2023-02-03T20:40:39.129Z,24.05
2023-02-03T20:43:27.774Z,25.88
2023-02-03T20:46:18.675Z,18.33
2023-02-03T20:49:04.574Z,20.98
2023-02-03T20:51:50.259Z,17.42
2023-02-03T20:54:37.283Z,16.55
2023-02-03T20:57:23.230Z,15.48
2023-02-03T21:00:23.436Z,15.48
2023-02-03T21:03:33.009Z,14.85
2023-02-03T21:06:20.231Z,14.23
2023-02-03T21:09:15.985Z,17.42
2023-02-03T21:12:01.940Z,15.65
2023-02-03T21:14:53.265Z,15.68
2023-02-03T21:17:39.043Z,17.52
2023-02-03T21:20:31.210Z,14.77
2023-02-03T21:23:17.989Z,15.23
2023-02-03T21:26:16.394Z,12.77
2023-02-03T21:29:02.459Z,11.73
2023-02-03T21:31:48.759Z,13.40
2023-02-03T21:34:35.790Z,12.52
2023-02-03T21:37:39.069Z,14.63
2023-02-03T21:40:27.909Z,12.15
2023-02-03T21:43:18.431Z,11.82
2023-02-03T21:46:04.238Z,12.98
2023-02-03T21:48:55.211Z,6.97
2023-02-03T21:51:41.814Z,9.55
2023-02-03T21:54:30.459Z,14.48
2023-02-03T21:57:17.117Z,10.18
2023-02-03T22:00:35.067Z,13.20
2023-02-03T22:03:30.546Z,15.35
2023-02-03T22:06:20.840Z,10.95
2023-02-03T22:09:07.092Z,11.05
2023-02-03T22:11:53.163Z,14.32
2023-02-03T22:14:39.233Z,11.80
2023-02-03T22:17:25.070Z,8.52
2023-02-03T22:20:12.087Z,7.25
2023-02-03T22:22:57.920Z,7.75
2023-02-03T22:25:44.317Z,6.47
2023-02-03T22:28:30.182Z,8.85
2023-02-03T22:31:16.454Z,7.60
2023-02-03T22:34:02.674Z,7.78
2023-02-03T22:36:48.592Z,5.88
2023-02-03T22:39:34.366Z,6.28
2023-02-03T22:42:22.372Z,8.70
2023-02-03T22:45:09.013Z,7.63
2023-02-03T22:47:57.185Z,8.57
2023-02-03T22:50:43.350Z,10.25
2023-02-03T22:53:29.557Z,12.55
2023-02-03T22:56:15.260Z,14.55
2023-02-03T22:59:02.998Z,13.38
2023-02-03T23:01:48.708Z,9.05
2023-02-03T23:04:34.784Z,10.05
2023-02-03T23:07:20.574Z,7.47
2023-02-03T23:10:10.522Z,8.02
2023-02-03T23:12:58.527Z,6.65
2023-02-03T23:15:48.739Z,7.72
2023-02-03T23:18:34.480Z,7.45
2023-02-03T23:21:20.226Z,7.22
2023-02-03T23:24:06.376Z,8.25
2023-02-03T23:26:53.856Z,6.57
2023-02-03T23:29:39.912Z,6.13
2023-02-03T23:32:25.966Z,6.75
2023-02-03T23:35:30.509Z,12.77
2023-02-03T23:38:17.787Z,5.57
2023-02-03T23:41:03.885Z,5.55
2023-02-03T23:43:49.835Z,4.10
2023-02-03T23:46:35.911Z,6.13
2023-02-03T23:49:21.766Z,5.30
2023-02-03T23:52:07.732Z,6.53
2023-02-03T23:54:53.522Z,4.65
2023-02-03T23:57:39.288Z,4.78
